createdAt,value
2022-12-03T00:00:22.807Z,23.60
2022-12-03T00:03:10.843Z,26.40
2022-12-03T00:05:41.873Z,28.50
2022-12-03T00:08:16.203Z,26.80
2022-12-03T00:10:48.548Z,24.00
2022-12-03T00:13:16.500Z,24.40
2022-12-03T00:15:44.466Z,29.20
2022-12-03T00:18:12.424Z,19.60
2022-12-03T00:20:40.627Z,27.80
2022-12-03T00:23:08.460Z,24.00
2022-12-03T00:25:36.372Z,20.30
2022-12-03T00:28:04.583Z,18.80
2022-12-03T00:30:32.555Z,22.00
2022-12-03T00:33:00.448Z,24.90
2022-12-03T00:35:28.337Z,20.30
2022-12-03T00:37:56.199Z,25.70
2022-12-03T00:40:24.741Z,23.00
2022-12-03T00:42:52.722Z,22.10
2022-12-03T00:45:20.558Z,22.00
2022-12-03T00:47:48.447Z,22.40
2022-12-03T00:50:16.438Z,26.60
2022-12-03T00:52:44.353Z,24.50
2022-12-03T00:55:12.336Z,22.10
2022-12-03T00:57:40.228Z,28.00
2022-12-03T01:00:10.379Z,26.80
2022-12-03T01:02:38.219Z,25.00
2022-12-03T01:05:06.894Z,27.80
2022-12-03T01:07:36.454Z,22.00
2022-12-03T01:10:04.971Z,24.70
2022-12-03T01:12:32.853Z,26.20
2022-12-03T01:15:00.738Z,24.70
2022-12-03T01:17:28.719Z,24.00
2022-12-03T01:19:56.646Z,24.70
2022-12-03T01:22:25.276Z,22.90
2022-12-03T01:24:53.669Z,26.70
2022-12-03T01:27:21.689Z,21.60
2022-12-03T01:29:49.660Z,22.10
2022-12-03T01:32:17.854Z,22.40
2022-12-03T01:34:47.591Z,24.10
2022-12-03T01:37:16.063Z,23.80
2022-12-03T01:39:44.074Z,21.20
2022-12-03T01:42:17.680Z,17.00
2022-12-03T01:44:46.733Z,17.80
2022-12-03T01:47:18.370Z,19.70
2022-12-03T01:49:54.005Z,22.60
2022-12-03T01:52:29.165Z,19.40
2022-12-03T01:55:03.437Z,21.80
2022-12-03T01:57:45.041Z,24.40
2022-12-03T02:00:19.183Z,23.10
2022-12-03T02:02:50.445Z,22.10
2022-12-03T02:05:21.775Z,21.80
2022-12-03T02:07:50.110Z,27.30
2022-12-03T02:10:25.862Z,26.00
2022-12-03T02:13:03.261Z,23.30
2022-12-03T02:15:31.264Z,25.40
2022-12-03T02:18:00.135Z,27.80
2022-12-03T02:20:28.066Z,21.40
2022-12-03T02:23:01.024Z,21.20
2022-12-03T02:25:32.296Z,23.50
2022-12-03T02:28:01.417Z,21.80
2022-12-03T02:30:30.652Z,21.70
2022-12-03T02:32:59.448Z,20.10
2022-12-03T02:35:30.677Z,21.20
2022-12-03T02:38:20.495Z,19.40
2022-12-03T02:40:51.611Z,24.70
2022-12-03T02:43:22.013Z,23.80
2022-12-03T02:45:53.959Z,22.80
2022-12-03T02:48:40.056Z,21.50
2022-12-03T02:51:10.416Z,20.20
2022-12-03T02:53:44.699Z,28.10
2022-12-03T02:56:16.244Z,21.50
2022-12-03T02:58:47.027Z,20.70
2022-12-03T03:01:15.707Z,20.50
2022-12-03T03:03:45.629Z,19.40
2022-12-03T03:06:15.790Z,22.00
2022-12-03T03:08:44.759Z,22.10
2022-12-03T03:11:12.757Z,22.00
2022-12-03T03:13:40.823Z,23.60
2022-12-03T03:16:09.870Z,20.90
2022-12-03T03:18:38.255Z,18.20
2022-12-03T03:21:06.520Z,21.40
2022-12-03T03:23:34.765Z,19.20
2022-12-03T03:26:02.576Z,20.20
2022-12-03T03:28:31.148Z,22.40
2022-12-03T03:31:01.916Z,22.70
2022-12-03T03:33:30.594Z,23.20
2022-12-03T03:36:00.582Z,23.50
2022-12-03T03:38:30.007Z,26.60
2022-12-03T03:41:00.610Z,26.10
2022-12-03T03:43:30.273Z,23.90
2022-12-03T03:45:58.251Z,22.50
2022-12-03T03:48:26.373Z,25.80
2022-12-03T03:51:03.257Z,29.60
2022-12-03T03:53:33.180Z,24.30
2022-12-03T03:56:01.225Z,21.90
2022-12-03T03:58:29.088Z,21.80
2022-12-03T04:00:56.979Z,26.40
2022-12-03T04:03:24.804Z,20.90
2022-12-03T04:05:52.726Z,22.70
2022-12-03T04:08:20.556Z,21.90
2022-12-03T04:11:07.222Z,26.30
2022-12-03T04:13:35.786Z,27.00
2022-12-03T04:16:04.357Z,25.60
2022-12-03T04:18:45.078Z,18.70
2022-12-03T04:21:34.310Z,27.00
2022-12-03T04:24:03.546Z,24.90
2022-12-03T04:26:50.425Z,21.80
2022-12-03T04:29:19.489Z,22.00
2022-12-03T04:32:06.575Z,22.50
2022-12-03T04:34:53.816Z,21.70
2022-12-03T04:37:25.279Z,25.60
2022-12-03T04:39:53.898Z,19.10
2022-12-03T04:42:22.462Z,19.70
2022-12-03T04:44:50.539Z,18.80
2022-12-03T04:47:20.921Z,19.70
2022-12-03T04:49:51.369Z,19.10
2022-12-03T04:52:20.683Z,20.80
2022-12-03T04:54:49.348Z,17.90
2022-12-03T04:57:17.257Z,19.70
2022-12-03T04:59:45.069Z,19.50
2022-12-03T05:02:13.895Z,17.60
2022-12-03T05:04:43.433Z,22.80
2022-12-03T05:09:42.109Z,20.40
2022-12-03T05:12:10.341Z,20.80
2022-12-03T05:14:38.305Z,20.30
2022-12-03T05:17:06.625Z,21.00
2022-12-03T05:19:53.579Z,19.70
2022-12-03T05:22:22.142Z,20.10
2022-12-03T05:24:50.888Z,19.90
2022-12-03T05:27:23.646Z,18.90
2022-12-03T05:29:53.016Z,18.20
2022-12-03T05:32:21.516Z,20.10
2022-12-03T05:34:53.223Z,24.70
2022-12-03T05:37:21.560Z,19.70
2022-12-03T05:39:49.319Z,20.30
2022-12-03T05:42:35.970Z,19.30
2022-12-03T05:45:04.445Z,20.50
2022-12-03T05:47:32.354Z,22.20
2022-12-03T05:50:00.192Z,20.40
2022-12-03T05:52:28.952Z,23.20
2022-12-03T05:54:57.104Z,24.10
2022-12-03T05:57:25.208Z,28.00
2022-12-03T05:59:53.002Z,31.20
2022-12-03T06:02:21.128Z,24.80
2022-12-03T06:04:49.495Z,20.00
2022-12-03T06:07:17.561Z,21.10
2022-12-03T06:09:45.410Z,24.30
2022-12-03T06:12:13.557Z,23.20
2022-12-03T06:14:41.577Z,22.60
2022-12-03T06:17:09.476Z,24.60
2022-12-03T06:19:37.547Z,23.90
2022-12-03T06:22:05.513Z,28.60
2022-12-03T06:24:33.649Z,21.80
2022-12-03T06:27:01.757Z,24.60
2022-12-03T06:29:29.831Z,25.60
2022-12-03T06:31:57.860Z,24.20
2022-12-03T06:34:25.964Z,23.90
2022-12-03T06:36:53.908Z,22.40
2022-12-03T06:39:21.791Z,24.80
2022-12-03T06:41:49.648Z,25.90
2022-12-03T06:44:17.534Z,22.40
2022-12-03T06:46:45.627Z,23.00
2022-12-03T06:49:13.610Z,29.50
2022-12-03T06:51:41.679Z,27.20
2022-12-03T06:54:09.893Z,24.30
2022-12-03T06:56:44.697Z,21.10
2022-12-03T06:59:14.050Z,22.80
2022-12-03T07:01:42.002Z,25.80
2022-12-03T07:04:10.547Z,22.70
2022-12-03T07:06:38.551Z,24.80
2022-12-03T07:09:06.461Z,25.50
2022-12-03T07:11:40.637Z,20.80
2022-12-03T07:14:11.549Z,27.40
2022-12-03T07:16:40.340Z,35.10
2022-12-03T07:19:08.240Z,31.80
2022-12-03T07:21:36.697Z,33.30
2022-12-03T07:24:05.647Z,38.00
2022-12-03T07:26:33.602Z,47.60
2022-12-03T07:29:01.482Z,49.30
2022-12-03T07:31:29.609Z,44.90
2022-12-03T07:33:57.557Z,39.10
2022-12-03T07:36:25.435Z,35.20
2022-12-03T07:38:53.269Z,33.60
2022-12-03T07:41:21.043Z,32.80
2022-12-03T07:43:48.926Z,38.40
2022-12-03T07:46:17.290Z,30.00
2022-12-03T07:48:45.189Z,30.00
2022-12-03T07:51:15.404Z,32.40
2022-12-03T07:53:43.575Z,33.20
2022-12-03T07:56:11.606Z,38.00
2022-12-03T07:58:39.658Z,41.60
2022-12-03T08:01:10.124Z,34.60
2022-12-03T08:03:38.670Z,23.70
2022-12-03T08:06:06.717Z,21.10
2022-12-03T08:08:34.783Z,30.10
2022-12-03T08:11:02.729Z,29.40
2022-12-03T08:13:30.950Z,29.30
2022-12-03T08:16:02.168Z,28.70
2022-12-03T08:18:30.056Z,22.60
2022-12-03T08:20:58.348Z,24.90
2022-12-03T08:23:26.534Z,27.10
2022-12-03T08:25:54.691Z,30.40
2022-12-03T08:28:26.642Z,26.30
2022-12-03T08:31:02.716Z,31.20
2022-12-03T08:33:35.452Z,28.00
2022-12-03T08:36:13.345Z,32.60
2022-12-03T08:38:41.512Z,29.40
2022-12-03T08:41:15.759Z,28.90
2022-12-03T08:43:44.006Z,26.10
2022-12-03T08:46:19.214Z,23.40
2022-12-03T08:48:49.472Z,22.00
2022-12-03T08:51:27.282Z,21.10
2022-12-03T08:54:04.282Z,25.40
2022-12-03T08:56:36.181Z,20.30
2022-12-03T08:59:28.357Z,21.70
2022-12-03T09:01:58.239Z,20.70
2022-12-03T09:04:41.397Z,25.90
2022-12-03T09:07:13.113Z,23.00
2022-12-03T09:09:41.164Z,27.90
2022-12-03T09:12:09.108Z,29.50
2022-12-03T09:14:39.045Z,29.10
2022-12-03T09:17:07.225Z,27.40
2022-12-03T09:19:44.287Z,25.50
2022-12-03T09:22:15.346Z,25.50
2022-12-03T09:24:43.627Z,24.70
2022-12-03T09:27:11.515Z,21.90
2022-12-03T09:29:39.523Z,20.80
2022-12-03T09:32:07.755Z,28.00
2022-12-03T09:34:35.884Z,23.40
2022-12-03T09:37:03.718Z,25.90
2022-12-03T09:39:34.685Z,24.90
2022-12-03T09:44:33.701Z,26.10
2022-12-03T09:47:11.990Z,23.20
2022-12-03T09:49:41.181Z,20.60
2022-12-03T09:52:14.117Z,20.10
2022-12-03T09:54:47.107Z,23.80
2022-12-03T09:57:17.139Z,18.70
2022-12-03T09:59:45.775Z,19.70
2022-12-03T10:02:28.467Z,24.30
2022-12-03T10:04:58.148Z,22.60
2022-12-03T10:07:26.580Z,17.80
2022-12-03T10:09:54.742Z,20.90
2022-12-03T10:12:26.655Z,19.80
2022-12-03T10:14:55.555Z,16.40
2022-12-03T10:20:33.124Z,18.50
2022-12-03T10:23:01.049Z,21.60
2022-12-03T10:25:29.162Z,20.60
2022-12-03T10:28:00.808Z,17.50
2022-12-03T10:30:29.421Z,19.30
2022-12-03T10:32:59.038Z,17.40
2022-12-03T10:35:42.172Z,19.60
2022-12-03T10:38:24.752Z,18.50
2022-12-03T10:40:52.828Z,19.60
2022-12-03T10:43:26.389Z,17.30
2022-12-03T10:46:04.696Z,15.80
2022-12-03T10:48:37.764Z,16.90
2022-12-03T10:51:27.455Z,20.20
2022-12-03T10:53:55.528Z,15.80
2022-12-03T10:56:32.051Z,16.30
2022-12-03T10:59:03.388Z,14.80
2022-12-03T11:01:32.295Z,14.90
2022-12-03T11:04:05.330Z,16.20
2022-12-03T11:06:33.741Z,17.70
2022-12-03T11:09:08.781Z,17.30
2022-12-03T11:11:37.346Z,17.20
2022-12-03T11:14:07.659Z,16.20
2022-12-03T11:16:41.616Z,15.70
2022-12-03T11:19:12.771Z,15.10
2022-12-03T11:24:27.407Z,18.90
2022-12-03T11:26:55.199Z,13.00
2022-12-03T11:29:54.855Z,15.60
2022-12-03T11:32:38.307Z,12.30
2022-12-03T11:35:13.698Z,16.70
2022-12-03T11:37:43.877Z,13.50
2022-12-03T11:40:17.966Z,12.80
2022-12-03T11:42:47.980Z,12.60
2022-12-03T11:45:36.020Z,13.70
2022-12-03T11:48:15.103Z,14.00
2022-12-03T11:50:52.872Z,14.30
2022-12-03T11:56:06.737Z,19.70
2022-12-03T11:58:38.734Z,16.70
2022-12-03T12:01:08.505Z,14.90
2022-12-03T12:03:49.094Z,18.50
2022-12-03T12:06:19.618Z,12.40
2022-12-03T12:08:58.616Z,14.80
2022-12-03T12:11:28.910Z,14.40
2022-12-03T12:14:04.005Z,15.50
2022-12-03T12:16:52.491Z,16.90
2022-12-03T12:19:29.025Z,17.10
2022-12-03T12:22:12.137Z,16.50
2022-12-03T12:24:54.472Z,15.80
2022-12-03T12:27:34.652Z,16.20
2022-12-03T12:30:13.047Z,20.00
2022-12-03T12:33:07.851Z,18.40
2022-12-03T12:35:42.013Z,20.30
2022-12-03T12:38:16.275Z,19.10
2022-12-03T12:40:51.990Z,16.70
2022-12-03T12:43:24.712Z,16.20
2022-12-03T12:45:57.084Z,16.90
2022-12-03T12:48:36.681Z,17.40
2022-12-03T12:51:14.951Z,24.10
2022-12-03T12:53:43.620Z,17.90
2022-12-03T12:56:28.006Z,19.30
2022-12-03T12:59:03.987Z,19.50
2022-12-03T13:01:33.921Z,18.10
2022-12-03T13:04:04.318Z,14.00
2022-12-03T13:06:32.485Z,17.40
2022-12-03T13:09:04.401Z,19.10
2022-12-03T13:11:46.357Z,17.30
2022-12-03T13:14:32.454Z,15.20
2022-12-03T13:17:27.348Z,18.20
2022-12-03T13:20:14.518Z,21.10
2022-12-03T13:22:53.467Z,14.60
2022-12-03T13:26:00.243Z,19.20
2022-12-03T13:28:31.826Z,17.20
2022-12-03T13:31:23.571Z,15.90
2022-12-03T13:34:00.745Z,18.20
2022-12-03T13:36:47.531Z,18.20
2022-12-03T13:39:39.547Z,15.90
2022-12-03T13:42:43.286Z,15.90
2022-12-03T13:45:14.354Z,15.30
2022-12-03T13:47:53.264Z,19.80
2022-12-03T13:50:41.233Z,20.80
2022-12-03T13:53:40.511Z,15.00
2022-12-03T13:56:33.130Z,15.40
2022-12-03T13:59:01.827Z,18.50
2022-12-03T14:01:30.211Z,16.00
2022-12-03T14:03:58.476Z,15.10
2022-12-03T14:06:26.826Z,16.40
2022-12-03T14:08:54.898Z,14.80
2022-12-03T14:11:41.456Z,16.10
2022-12-03T14:14:09.523Z,14.90
2022-12-03T14:16:37.850Z,17.10
2022-12-03T14:19:06.382Z,14.50
2022-12-03T14:21:34.180Z,19.80
2022-12-03T14:24:02.117Z,18.50
2022-12-03T14:26:29.996Z,18.50
2022-12-03T14:28:59.146Z,18.30
2022-12-03T14:31:27.217Z,24.80
2022-12-03T14:33:55.088Z,19.30
2022-12-03T14:36:23.092Z,16.70
2022-12-03T14:38:51.025Z,18.80
2022-12-03T14:41:37.743Z,19.80
2022-12-03T14:44:05.630Z,20.90
2022-12-03T14:46:33.491Z,18.20
2022-12-03T14:49:01.335Z,19.90
2022-12-03T14:51:29.244Z,18.30
2022-12-03T14:53:57.448Z,19.60
2022-12-03T14:56:25.721Z,22.20
2022-12-03T14:58:58.603Z,25.50
2022-12-03T15:01:26.646Z,31.00
2022-12-03T15:03:54.795Z,28.90
2022-12-03T15:06:22.876Z,26.80
2022-12-03T15:08:51.357Z,35.20
2022-12-03T15:11:19.317Z,24.80
2022-12-03T15:13:47.340Z,24.40
2022-12-03T15:16:15.730Z,31.40
2022-12-03T15:18:43.700Z,22.70
2022-12-03T15:21:12.790Z,23.80
2022-12-03T15:23:44.761Z,24.40
2022-12-03T15:26:16.228Z,24.00
2022-12-03T15:28:48.527Z,28.00
2022-12-03T15:31:16.837Z,24.70
2022-12-03T15:33:44.760Z,22.70
2022-12-03T15:36:12.965Z,31.00
2022-12-03T15:38:40.890Z,25.90
2022-12-03T15:41:27.374Z,26.10
2022-12-03T15:44:00.047Z,21.60
2022-12-03T15:46:28.628Z,25.50
2022-12-03T15:48:57.629Z,21.00
2022-12-03T15:51:26.932Z,32.70
2022-12-03T15:53:55.031Z,25.40
2022-12-03T15:56:23.162Z,27.80
2022-12-03T15:58:51.131Z,21.80
2022-12-03T16:01:19.413Z,27.50
2022-12-03T16:03:47.470Z,26.20
2022-12-03T16:06:15.761Z,30.10
2022-12-03T16:08:43.778Z,29.10
2022-12-03T16:11:12.321Z,31.80
2022-12-03T16:13:40.528Z,23.70
2022-12-03T16:16:10.839Z,22.20
2022-12-03T16:18:38.741Z,25.70
2022-12-03T16:21:06.662Z,23.40
2022-12-03T16:23:34.980Z,22.90
2022-12-03T16:26:06.469Z,26.80
2022-12-03T16:28:35.013Z,24.10
2022-12-03T16:31:04.030Z,21.90
2022-12-03T16:33:32.267Z,27.30
2022-12-03T16:36:00.095Z,22.20
2022-12-03T16:38:28.070Z,24.30
2022-12-03T16:40:55.806Z,25.70
2022-12-03T16:43:23.820Z,25.20
2022-12-03T16:46:03.321Z,29.80
2022-12-03T16:48:31.467Z,25.60
2022-12-03T16:50:59.413Z,26.90
2022-12-03T16:53:27.343Z,21.00
2022-12-03T16:55:55.649Z,25.20
2022-12-03T16:58:23.773Z,23.10
2022-12-03T17:00:58.020Z,26.60
2022-12-03T17:03:32.059Z,23.10
2022-12-03T17:06:03.007Z,21.90
2022-12-03T17:08:31.529Z,17.60
2022-12-03T17:11:02.628Z,28.30
2022-12-03T17:13:31.250Z,25.10
2022-12-03T17:16:01.661Z,22.30
2022-12-03T17:18:30.070Z,23.80
2022-12-03T17:21:04.822Z,18.40
2022-12-03T17:23:33.036Z,20.50
2022-12-03T17:26:02.937Z,25.70
2022-12-03T17:28:31.412Z,18.40
2022-12-03T17:30:59.342Z,17.80
2022-12-03T17:33:27.328Z,24.40
2022-12-03T17:35:55.147Z,20.70
2022-12-03T17:38:23.279Z,18.90
2022-12-03T17:40:51.353Z,20.40
2022-12-03T17:43:19.485Z,23.40
2022-12-03T17:45:50.100Z,22.90
2022-12-03T17:48:24.801Z,23.50
2022-12-03T17:50:56.969Z,22.20
2022-12-03T17:53:28.113Z,19.30
2022-12-03T17:56:06.451Z,19.70
2022-12-03T17:58:39.193Z,20.20
2022-12-03T18:01:12.074Z,20.70
2022-12-03T18:03:40.564Z,22.90
2022-12-03T18:06:09.024Z,18.90
2022-12-03T18:08:37.292Z,19.30
2022-12-03T18:11:05.517Z,26.00
2022-12-03T18:13:34.543Z,18.00
2022-12-03T18:16:02.608Z,23.40
2022-12-03T18:18:30.530Z,20.20
2022-12-03T18:21:02.362Z,20.80
2022-12-03T18:23:33.066Z,20.60
2022-12-03T18:26:04.612Z,18.60
2022-12-03T18:28:32.894Z,22.60
2022-12-03T18:31:06.863Z,21.30
2022-12-03T18:33:35.164Z,22.70
2022-12-03T18:36:03.049Z,22.10
2022-12-03T18:38:33.360Z,25.40
2022-12-03T18:41:02.314Z,24.30
2022-12-03T18:43:30.540Z,20.50
2022-12-03T18:45:58.591Z,20.30
2022-12-03T18:48:26.466Z,14.80
2022-12-03T18:50:56.620Z,18.40
2022-12-03T18:53:24.871Z,19.50
2022-12-03T18:55:52.940Z,22.40
2022-12-03T18:58:26.692Z,20.60
2022-12-03T19:00:56.924Z,21.00
2022-12-03T19:03:25.188Z,18.90
2022-12-03T19:05:53.171Z,21.80
2022-12-03T19:08:21.263Z,19.60
2022-12-03T19:11:04.541Z,14.10
2022-12-03T19:13:34.505Z,15.00
2022-12-03T19:16:04.677Z,14.70
2022-12-03T19:18:35.782Z,16.60
2022-12-03T19:21:12.531Z,20.90
2022-12-03T19:23:42.777Z,18.90
2022-12-03T19:26:15.508Z,17.40
2022-12-03T19:28:43.560Z,14.60
2022-12-03T19:31:14.965Z,20.10
2022-12-03T19:33:44.302Z,17.20
2022-12-03T19:36:31.500Z,17.90
2022-12-03T19:39:00.913Z,23.70
2022-12-03T19:41:32.532Z,19.10
2022-12-03T19:44:00.731Z,22.50
2022-12-03T19:46:31.420Z,23.30
2022-12-03T19:48:59.643Z,15.30
2022-12-03T19:51:36.005Z,20.00
2022-12-03T19:54:07.234Z,19.90
2022-12-03T19:59:04.004Z,18.20
2022-12-03T20:01:34.719Z,20.20
2022-12-03T20:04:05.177Z,19.90
2022-12-03T20:06:35.709Z,19.50
2022-12-03T20:09:07.016Z,17.20
2022-12-03T20:11:38.212Z,13.90
2022-12-03T20:14:10.888Z,16.20
2022-12-03T20:16:38.979Z,17.80
2022-12-03T20:19:10.106Z,19.40
2022-12-03T20:21:44.793Z,17.20
2022-12-03T20:24:19.888Z,16.60
2022-12-03T20:26:50.563Z,19.90
2022-12-03T20:29:18.553Z,21.30
2022-12-03T20:31:46.444Z,21.10
2022-12-03T20:34:15.418Z,20.90
2022-12-03T20:36:44.320Z,22.20
2022-12-03T20:39:12.256Z,24.70
2022-12-03T20:41:40.074Z,20.80
2022-12-03T20:44:08.499Z,18.00
2022-12-03T20:46:36.748Z,19.80
2022-12-03T20:49:05.433Z,15.10
2022-12-03T20:51:33.765Z,13.20
2022-12-03T20:54:02.673Z,17.90
2022-12-03T20:56:31.664Z,24.50
2022-12-03T20:59:00.936Z,21.40
2022-12-03T21:01:29.033Z,17.70
2022-12-03T21:03:57.418Z,22.80
2022-12-03T21:06:28.227Z,21.80
2022-12-03T21:11:29.864Z,24.40
2022-12-03T21:13:59.011Z,25.90
2022-12-03T21:17:06.114Z,22.00
2022-12-03T21:19:21.328Z,19.20
2022-12-03T21:21:49.497Z,18.90
2022-12-03T21:24:17.382Z,18.10
2022-12-03T21:26:46.203Z,16.70
2022-12-03T21:29:14.438Z,17.60
2022-12-03T21:31:42.293Z,17.50
2022-12-03T21:34:10.322Z,16.80
2022-12-03T21:36:38.848Z,20.70
2022-12-03T21:39:07.428Z,11.70
2022-12-03T21:41:35.749Z,14.20
2022-12-03T21:44:04.534Z,17.80
2022-12-03T21:47:12.751Z,16.10
2022-12-03T21:49:22.774Z,20.90
2022-12-03T21:51:50.583Z,18.20
2022-12-03T21:54:18.528Z,13.90
2022-12-03T21:56:46.608Z,18.50
2022-12-03T21:59:14.850Z,15.70
2022-12-03T22:01:46.958Z,18.70
2022-12-03T22:04:15.203Z,15.70
2022-12-03T22:06:43.478Z,12.70
2022-12-03T22:09:14.929Z,13.70
2022-12-03T22:11:51.597Z,14.80
2022-12-03T22:14:24.447Z,13.80
2022-12-03T22:16:52.567Z,14.20
2022-12-03T22:19:24.525Z,15.00
2022-12-03T22:21:55.502Z,17.70
2022-12-03T22:26:54.981Z,17.00
2022-12-03T22:29:23.058Z,14.70
2022-12-03T22:31:51.129Z,14.20
2022-12-03T22:34:19.132Z,17.00
2022-12-03T22:36:48.742Z,14.30
2022-12-03T22:39:16.613Z,13.50
2022-12-03T22:41:44.505Z,11.50
2022-12-03T22:44:15.789Z,14.00
2022-12-03T22:46:43.968Z,17.40
2022-12-03T22:49:13.231Z,15.80
2022-12-03T22:51:44.618Z,14.80
2022-12-03T22:54:13.441Z,13.50
2022-12-03T22:56:41.595Z,16.80
2022-12-03T22:59:09.642Z,14.30
2022-12-03T23:01:39.606Z,15.00
2022-12-03T23:04:08.895Z,15.10
2022-12-03T23:06:37.795Z,16.10
2022-12-03T23:09:07.465Z,14.20
2022-12-03T23:11:35.870Z,13.60
2022-12-03T23:14:03.922Z,17.10
2022-12-03T23:16:33.184Z,15.90
2022-12-03T23:19:12.047Z,17.60
2022-12-03T23:21:46.363Z,18.70
2022-12-03T23:24:14.187Z,16.40
2022-12-03T23:26:42.306Z,16.10
2022-12-03T23:29:10.182Z,16.40
2022-12-03T23:31:38.132Z,12.60
2022-12-03T23:34:06.344Z,15.20
2022-12-03T23:36:34.486Z,13.40
2022-12-03T23:39:03.112Z,14.40
2022-12-03T23:41:31.045Z,16.80
2022-12-03T23:43:58.903Z,14.40
2022-12-03T23:46:27.578Z,12.70
2022-12-03T23:48:58.625Z,12.60
2022-12-03T23:51:26.839Z,13.10
2022-12-03T23:53:56.240Z,12.90
2022-12-03T23:56:27.600Z,12.40
2022-12-03T23:58:57.439Z,16.00
